Time;durP1;ratioP1;P1;durP2;ratioP2;P2;SDS_P1;SDS_P2;PMS_P1;PMS_P2;Temp;Humidity;BMP_temperature;BMP_pressure;BME280_temperature;BME280_humidity;BME280_pressure;Samples;Min_cycle;Max_cycle;Signal;HPM_P1;HPM_P2
2023/11/27 00:00:58;;;;;;;11.10;6.30;;;;;;;4.02;100.00;100952.97;5131715;27;20110;-35
2023/11/27 00:03:23;;;;;;;9.87;6.87;;;;;;;4.03;100.00;100947.41;5129501;28;20031;-34
2023/11/27 00:05:49;;;;;;;13.50;6.37;;;;;;;4.02;100.00;100936.91;5130580;27;20034;-34
2023/11/27 00:08:14;;;;;;;8.80;6.30;;;;;;;3.88;100.00;100919.84;5121411;27;20499;-34
2023/11/27 00:10:39;;;;;;;10.10;6.53;;;;;;;4.01;100.00;100941.44;5117294;28;20058;-34
2023/11/27 00:13:05;;;;;;;8.47;6.37;;;;;;;4.03;100.00;100936.72;5116924;28;20045;-34
2023/11/27 00:15:30;;;;;;;11.07;6.67;;;;;;;4.02;100.00;100927.03;5117139;28;20023;-35
2023/11/27 00:17:55;;;;;;;8.63;6.20;;;;;;;4.03;100.00;100922.50;5117144;28;20439;-35
2023/11/27 00:20:21;;;;;;;10.57;6.20;;;;;;;3.82;100.00;100894.66;5117190;28;20015;-34
2023/11/27 00:22:46;;;;;;;10.87;6.40;;;;;;;4.02;100.00;100908.31;5116701;28;20030;-34
2023/11/27 00:25:12;;;;;;;8.90;5.33;;;;;;;3.97;100.00;100894.66;5117062;28;20291;-35
2023/11/27 00:27:37;;;;;;;9.30;6.10;;;;;;;3.99;100.00;100902.47;5116639;28;20059;-35
2023/11/27 00:30:06;;;;;;;8.32;5.97;;;;;;;4.00;100.00;100898.78;5117215;28;20047;-35
2023/11/27 00:32:33;;;;;;;8.82;6.05;;;;;;;3.95;100.00;100887.81;5117123;28;20337;-35
2023/11/27 00:34:58;;;;;;;9.32;5.55;;;;;;;3.96;100.00;100890.31;5116427;28;20448;-35
2023/11/27 00:37:24;;;;;;;10.18;5.75;;;;;;;3.93;100.00;100873.81;5116405;28;20042;-35
2023/11/27 00:39:50;;;;;;;8.77;5.97;;;;;;;3.96;100.00;100871.59;5116183;28;20107;-35
2023/11/27 00:42:17;;;;;;;9.63;5.35;;;;;;;3.94;100.00;100870.94;5116344;28;20020;-35
2023/11/27 00:44:43;;;;;;;10.18;5.85;;;;;;;3.93;100.00;100852.41;5116766;28;20024;-35
2023/11/27 00:47:08;;;;;;;9.95;5.65;;;;;;;3.93;100.00;100852.41;5116277;28;20050;-35
2023/11/27 00:49:33;;;;;;;9.10;5.13;;;;;;;3.94;100.00;100844.19;5116562;28;20032;-35
2023/11/27 00:51:59;;;;;;;6.80;5.17;;;;;;;3.95;100.00;100845.00;5116229;28;20015;-35
2023/11/27 00:54:24;;;;;;;9.47;5.37;;;;;;;3.93;100.00;100839.03;5116205;28;20023;-35
2023/11/27 00:56:49;;;;;;;9.80;5.27;;;;;;;3.95;100.00;100842.31;5116140;27;20057;-35
2023/11/27 00:59:15;;;;;;;9.60;5.93;;;;;;;3.95;100.00;100839.66;5115826;28;20122;-35
2023/11/27 01:01:40;;;;;;;8.20;5.30;;;;;;;3.94;100.00;100828.13;5116091;28;20051;-36
2023/11/27 01:04:05;;;;;;;7.23;5.13;;;;;;;3.95;100.00;100820.91;5116304;28;20031;-35
2023/11/27 01:06:31;;;;;;;11.00;5.20;;;;;;;3.91;100.00;100814.31;5116206;28;20261;-35
2023/11/27 01:08:56;;;;;;;8.23;4.80;;;;;;;3.87;100.00;100801.31;5115785;28;20057;-35
2023/11/27 01:11:22;;;;;;;8.30;5.60;;;;;;;3.96;100.00;100811.91;5115421;28;20121;-35
2023/11/27 01:13:47;;;;;;;6.95;4.93;;;;;;;3.97;100.00;100810.88;5115973;28;20059;-35
2023/11/27 01:16:12;;;;;;;8.07;5.07;;;;;;;3.97;100.00;100805.53;5116241;28;20019;-35
2023/11/27 01:18:38;;;;;;;8.17;5.23;;;;;;;3.97;100.00;100806.34;5115067;27;20451;-35
2023/11/27 01:21:05;;;;;;;7.47;5.43;;;;;;;3.90;100.00;100777.84;5114994;28;20059;-35
2023/11/27 01:23:31;;;;;;;7.63;4.80;;;;;;;3.94;100.00;100788.00;5116040;28;20023;-35
2023/11/27 01:25:57;;;;;;;7.40;4.75;;;;;;;3.96;100.00;100785.16;5115539;27;20024;-35
2023/11/27 01:28:22;;;;;;;9.73;5.17;;;;;;;3.99;100.00;100784.75;5115423;28;20024;-35
2023/11/27 01:30:47;;;;;;;9.37;5.63;;;;;;;3.95;100.00;100783.47;5115740;28;20262;-35
2023/11/27 01:33:15;;;;;;;9.40;4.95;;;;;;;3.96;100.00;100779.78;5115301;28;20043;-35
2023/11/27 01:35:40;;;;;;;9.43;5.75;;;;;;;3.92;100.00;100776.66;5115789;28;20028;-35
2023/11/27 01:38:06;;;;;;;7.85;4.88;;;;;;;3.97;100.00;100778.78;5115585;28;20019;-35
2023/11/27 01:40:31;;;;;;;10.90;5.30;;;;;;;3.99;100.00;100768.69;5113972;28;20017;-35
2023/11/27 01:42:59;;;;;;;12.23;5.65;;;;;;;3.94;100.00;100760.41;5115400;28;20317;-35
2023/11/27 01:45:25;;;;;;;9.20;5.22;;;;;;;3.96;100.00;100764.56;5115392;28;20028;-35
2023/11/27 01:47:51;;;;;;;7.53;5.20;;;;;;;3.89;100.00;100744.94;5114876;28;20478;-35
2023/11/27 01:50:17;;;;;;;7.78;4.88;;;;;;;3.97;100.00;100747.50;5115545;28;20043;-35
2023/11/27 01:52:42;;;;;;;10.68;5.45;;;;;;;3.90;100.00;100741.22;5114833;28;20051;-35
2023/11/27 01:55:11;;;;;;;9.87;5.27;;;;;;;3.88;100.00;100733.41;5114938;28;20023;-35
2023/11/27 01:57:37;;;;;;;7.35;5.05;;;;;;;3.96;100.00;100748.50;5115346;28;20451;-35
2023/11/27 02:00:04;;;;;;;8.93;5.78;;;;;;;3.92;100.00;100733.03;5114545;28;20024;-35
2023/11/27 02:02:30;;;;;;;8.73;5.88;;;;;;;3.88;100.00;100730.72;5114527;28;20019;-35
2023/11/27 02:04:56;;;;;;;10.40;5.20;;;;;;;3.91;100.00;100726.03;5114780;28;20496;-35
2023/11/27 02:07:22;;;;;;;12.18;5.75;;;;;;;3.88;100.00;100713.84;5114755;28;20032;-35
2023/11/27 02:09:47;;;;;;;;;;;;;;;3.98;100.00;100726.91;5115134;28;20031;-35
2023/11/27 02:12:13;;;;;;;9.17;4.77;;;;;;;3.97;100.00;100714.56;5114648;28;19912;-35
2023/11/27 02:14:38;;;;;;;8.93;5.27;;;;;;;3.93;100.00;100708.75;5115112;28;20051;-35
2023/11/27 02:17:03;;;;;;;10.43;5.27;;;;;;;3.94;100.00;100704.22;5114889;28;20024;-35
2023/11/27 02:19:29;;;;;;;11.27;5.40;;;;;;;3.96;100.00;100704.88;5114831;28;20355;-35
2023/11/27 02:21:54;;;;;;;9.77;5.07;;;;;;;3.92;100.00;100707.09;5114327;28;20068;-35
2023/11/27 02:24:20;;;;;;;7.93;4.95;;;;;;;3.90;100.00;100706.44;5114430;28;20036;-35
2023/11/27 02:26:45;;;;;;;8.23;5.20;;;;;;;3.69;100.00;100667.16;5114705;28;20341;-35
2023/11/27 02:29:10;;;;;;;10.47;5.57;;;;;;;3.84;100.00;100688.50;5114423;28;20020;-35
2023/11/27 02:31:37;;;;;;;7.87;5.23;;;;;;;3.88;100.00;100679.06;5114449;28;20144;-35
2023/11/27 02:34:02;;;;;;;9.73;5.10;;;;;;;3.81;100.00;100660.28;5113963;28;20020;-35
2023/11/27 02:36:38;;;;;;;7.05;5.05;;;;;;;3.86;100.00;100665.06;5114530;28;20039;-35
2023/11/27 02:39:06;;;;;;;9.18;5.07;;;;;;;3.83;100.00;100665.44;5114492;28;20236;-35
2023/11/27 02:41:33;;;;;;;10.00;5.72;;;;;;;3.80;100.00;100655.94;5114784;28;20352;-35
2023/11/27 02:43:59;;;;;;;8.88;5.72;;;;;;;3.77;100.00;100651.00;5114708;28;20023;-35
2023/11/27 02:46:25;;;;;;;10.37;5.53;;;;;;;3.78;100.00;100639.25;5114250;28;20039;-35
2023/11/27 02:48:51;;;;;;;6.53;5.10;;;;;;;3.73;100.00;100636.34;5114091;28;20115;-35
2023/11/27 02:51:16;;;;;;;7.63;4.65;;;;;;;3.73;100.00;100628.31;5113825;28;20031;-35
2023/11/27 02:53:42;;;;;;;7.30;4.57;;;;;;;3.77;100.00;100628.78;5114349;28;20020;-35
2023/11/27 02:56:08;;;;;;;11.65;5.40;;;;;;;3.68;100.00;100606.66;5113812;28;20413;-35
2023/11/27 02:58:38;;;;;;;10.05;5.63;;;;;;;3.63;100.00;100597.56;5114035;28;20028;-35
2023/11/27 03:01:04;;;;;;;9.32;5.43;;;;;;;3.63;100.00;100593.03;5113685;28;20039;-35
2023/11/27 03:03:29;;;;;;;7.50;4.72;;;;;;;3.73;100.00;100596.22;5113939;28;20038;-35
2023/11/27 03:05:54;;;;;;;9.43;5.17;;;;;;;3.70;100.00;100585.06;5114799;28;20102;-35
2023/11/27 03:08:20;;;;;;;9.87;5.93;;;;;;;3.64;100.00;100584.00;5113704;28;20027;-35
2023/11/27 03:10:45;;;;;;;10.17;6.37;;;;;;;3.58;100.00;100556.19;5114311;28;20102;-35
2023/11/27 03:13:10;;;;;;;10.57;6.00;;;;;;;3.69;100.00;100565.53;5113867;28;20115;-35
2023/11/27 03:15:36;;;;;;;7.30;4.63;;;;;;;3.64;100.00;100551.91;5113567;28;20447;-35
2023/11/27 03:18:01;;;;;;;11.13;6.37;;;;;;;3.62;100.00;100548.63;5113811;28;20414;-35
2023/11/27 03:20:27;;;;;;;8.17;4.97;;;;;;;3.64;100.00;100551.91;5114668;28;20512;-35
2023/11/27 03:22:52;;;;;;;6.37;4.50;;;;;;;3.63;100.00;100536.06;5114076;28;20023;-35
2023/11/27 03:25:17;;;;;;;6.00;4.90;;;;;;;3.62;100.00;100537.91;5114072;28;20417;-35
2023/11/27 03:27:43;;;;;;;8.00;5.47;;;;;;;3.60;100.00;100537.25;5113748;28;20032;-35
2023/11/27 03:30:09;;;;;;;7.23;5.73;;;;;;;3.55;100.00;100524.47;5113367;28;20024;-35
2023/11/27 03:32:35;;;;;;;9.02;5.95;;;;;;;3.51;100.00;100517.84;5114234;28;20110;-35
2023/11/27 03:35:01;;;;;;;9.52;6.47;;;;;;;3.52;100.00;100518.72;5113680;28;20109;-35
2023/11/27 03:37:26;;;;;;;7.70;6.10;;;;;;;3.56;100.00;100514.59;5113924;28;20015;-36
2023/11/27 03:39:52;;;;;;;12.60;6.68;;;;;;;3.53;100.00;100505.13;5113359;28;20057;-35
2023/11/27 03:42:17;;;;;;;12.00;6.23;;;;;;;3.53;100.00;100498.97;5114382;28;20073;-35
2023/11/27 03:44:42;;;;;;;8.37;5.33;;;;;;;3.57;100.00;100495.72;5117307;28;20379;-35
2023/11/27 03:47:08;;;;;;;7.30;5.40;;;;;;;3.54;100.00;100490.75;5117756;28;20448;-35
2023/11/27 03:49:33;;;;;;;9.20;6.10;;;;;;;3.41;100.00;100463.91;5117795;28;20447;-35
2023/11/27 03:52:01;;;;;;;7.60;5.30;;;;;;;3.54;100.00;100476.56;5117660;28;20455;-35
2023/11/27 03:54:27;;;;;;;7.45;5.10;;;;;;;3.51;100.00;100474.25;5117285;28;20019;-35
2023/11/27 03:56:52;;;;;;;;;;;;;;;3.53;100.00;100466.88;5118421;28;20351;-35
2023/11/27 03:59:19;;;;;;;7.33;5.07;;;;;;;3.46;100.00;100464.16;5117441;28;19907;-35
2023/11/27 04:01:44;;;;;;;7.63;5.22;;;;;;;3.44;100.00;100446.66;5117181;28;20047;-35
2023/11/27 04:04:11;;;;;;;8.53;5.13;;;;;;;3.44;100.00;100438.63;5117428;28;20133;-35
2023/11/27 04:06:36;;;;;;;6.07;4.72;;;;;;;3.42;100.00;100425.47;5117057;28;20695;-35
2023/11/27 04:09:02;;;;;;;8.47;5.17;;;;;;;3.44;100.00;100417.25;5115773;28;20051;-35
2023/11/27 04:11:27;;;;;;;7.73;4.40;;;;;;;3.44;100.00;100409.25;5117856;28;20041;-35
2023/11/27 04:13:57;;;;;;;5.70;4.57;;;;;;;3.46;100.00;100404.50;5116707;28;20380;-35
2023/11/27 04:16:23;;;;;;;6.82;4.20;;;;;;;3.44;100.00;100393.19;5117404;28;20443;-35
2023/11/27 04:18:49;;;;;;;4.57;3.95;;;;;;;3.44;100.00;100398.53;5116919;28;20027;-35
2023/11/27 04:21:17;;;;;;;5.30;4.18;;;;;;;3.43;100.00;100392.38;5117102;28;20027;-36
2023/11/27 04:23:46;;;;;;;9.27;4.60;;;;;;;3.28;100.00;100365.75;5116750;28;20023;-35
2023/11/27 04:26:12;;;;;;;5.05;4.10;;;;;;;3.42;100.00;100389.91;5117003;28;20053;-35
2023/11/27 04:28:38;;;;;;;5.75;4.25;;;;;;;3.42;100.00;100381.88;5116959;28;20019;-35
2023/11/27 04:31:05;;;;;;;6.28;4.25;;;;;;;3.34;100.00;100364.97;5116891;28;20375;-35
2023/11/27 04:33:30;;;;;;;5.75;3.97;;;;;;;3.30;100.00;100350.34;5117054;28;20467;-35
2023/11/27 04:35:56;;;;;;;5.27;3.83;;;;;;;3.44;100.00;100374.47;5117073;28;20055;-35
2023/11/27 04:38:21;;;;;;;6.20;4.33;;;;;;;3.40;100.00;100374.03;5116490;28;20016;-35
2023/11/27 04:40:46;;;;;;;6.27;3.80;;;;;;;3.32;100.00;100359.00;5116804;28;20500;-35
2023/11/27 04:43:12;;;;;;;5.47;3.70;;;;;;;3.42;100.00;100371.19;5116196;28;20441;-35
2023/11/27 04:45:37;;;;;;;5.60;3.60;;;;;;;3.36;100.00;100362.91;5116692;28;20090;-35
2023/11/27 04:48:03;;;;;;;5.83;3.73;;;;;;;3.33;100.00;100365.16;5116076;27;20518;-35
2023/11/27 04:50:28;;;;;;;5.93;3.20;;;;;;;3.32;100.00;100366.19;5117147;28;20487;-35
2023/11/27 04:52:53;;;;;;;4.83;3.70;;;;;;;3.26;100.00;100357.09;5115891;28;20058;-35
2023/11/27 04:55:19;;;;;;;5.00;3.63;;;;;;;3.34;100.00;100356.94;5116368;28;20055;-35
2023/11/27 04:57:44;;;;;;;5.50;3.10;;;;;;;3.35;100.00;100353.25;5116950;28;20044;-35
2023/11/27 05:00:12;;;;;;;6.37;3.20;;;;;;;3.39;100.00;100347.53;5116975;28;20098;-35
2023/11/27 05:02:37;;;;;;;5.65;3.67;;;;;;;3.38;100.00;100340.53;5116002;28;20023;-35
2023/11/27 05:05:03;;;;;;;5.07;3.10;;;;;;;3.40;100.00;100344.63;5116605;28;20079;-35
2023/11/27 05:07:28;;;;;;;4.35;2.80;;;;;;;3.41;100.00;100324.91;5115709;28;20016;-35
2023/11/27 05:09:54;;;;;;;3.83;2.80;;;;;;;3.46;100.00;100327.00;5115921;28;20503;-35
2023/11/27 05:12:19;;;;;;;3.63;2.87;;;;;;;3.46;100.00;100327.81;5115843;28;20498;-35
2023/11/27 05:14:44;;;;;;;3.57;2.67;;;;;;;3.41;100.00;100313.38;5115796;28;20020;-35
2023/11/27 05:17:10;;;;;;;3.40;2.27;;;;;;;3.48;100.00;100316.94;5115483;27;20474;-36
2023/11/27 05:19:35;;;;;;;3.93;2.37;;;;;;;3.49;100.00;100307.91;5115702;28;20443;-36
2023/11/27 05:22:04;;;;;;;3.30;2.47;;;;;;;3.48;100.00;100293.72;5115691;28;20054;-36
2023/11/27 05:24:29;;;;;;;3.13;2.03;;;;;;;3.48;100.00;100280.34;5115892;27;20027;-36
2023/11/27 05:26:56;;;;;;;2.77;2.20;;;;;;;3.48;100.00;100266.16;5115852;28;20030;-35
2023/11/27 05:29:21;;;;;;;4.47;2.42;;;;;;;3.45;100.00;100271.88;5115198;28;20020;-35
2023/11/27 05:31:46;;;;;;;4.23;2.80;;;;;;;3.44;100.00;100259.53;5113926;28;20039;-35
2023/11/27 05:34:12;;;;;;;3.93;2.60;;;;;;;3.43;100.00;100256.06;5115419;28;20024;-35
2023/11/27 05:36:37;;;;;;;4.13;2.40;;;;;;;3.41;100.00;100249.25;5115615;28;20024;-35
2023/11/27 05:39:05;;;;;;;4.07;3.13;;;;;;;3.36;100.00;100229.28;5115270;28;20019;-36
2023/11/27 05:41:31;;;;;;;3.80;2.75;;;;;;;3.42;100.00;100233.03;5115846;28;20376;-36
2023/11/27 05:43:56;;;;;;;5.32;3.70;;;;;;;3.41;100.00;100227.84;5115166;27;20027;-36
2023/11/27 05:46:22;;;;;;;4.40;3.13;;;;;;;3.43;100.00;100237.34;5115471;28;20023;-35
2023/11/27 05:48:47;;;;;;;4.03;3.10;;;;;;;3.37;100.00;100208.75;5115185;28;20024;-35
2023/11/27 05:51:12;;;;;;;3.70;2.83;;;;;;;3.37;100.00;100198.06;5114871;28;20051;-36
2023/11/27 05:53:38;;;;;;;3.20;2.33;;;;;;;3.46;100.00;100210.19;5115052;28;20051;-35
2023/11/27 05:56:03;;;;;;;3.13;2.30;;;;;;;3.45;100.00;100210.41;5114722;28;20135;-36
2023/11/27 05:58:28;;;;;;;4.03;2.60;;;;;;;3.45;100.00;100194.38;5115436;28;20082;-36
2023/11/27 06:00:55;;;;;;;3.43;3.03;;;;;;;3.43;100.00;100181.22;5114679;28;20440;-36
2023/11/27 06:03:21;;;;;;;4.22;2.78;;;;;;;3.43;100.00;100188.41;5114142;28;20088;-35
2023/11/27 06:05:46;;;;;;;3.40;2.38;;;;;;;3.42;100.00;100186.78;5114021;28;20471;-36
2023/11/27 06:08:12;;;;;;;3.57;2.20;;;;;;;3.44;100.00;100179.34;5114465;28;20073;-36
2023/11/27 06:10:37;;;;;;;2.70;2.33;;;;;;;3.46;100.00;100174.63;5114984;28;20016;-36
2023/11/27 06:13:02;;;;;;;5.17;3.30;;;;;;;3.32;100.00;100150.56;5114951;28;20031;-35
2023/11/27 06:15:28;;;;;;;5.77;4.50;;;;;;;3.39;100.00;100160.44;5114792;28;20015;-35
2023/11/27 06:17:53;;;;;;;6.33;4.23;;;;;;;3.45;100.00;100170.31;5114219;28;20077;-36
2023/11/27 06:20:18;;;;;;;5.10;3.70;;;;;;;3.43;100.00;100162.50;5114857;28;20043;-36
2023/11/27 06:22:44;;;;;;;3.70;2.90;;;;;;;3.39;100.00;100145.22;5114187;28;20020;-35
2023/11/27 06:25:10;;;;;;;3.20;2.73;;;;;;;3.46;100.00;100145.22;5115338;28;20319;-35
2023/11/27 06:27:36;;;;;;;3.50;3.05;;;;;;;3.29;100.00;100123.41;5114464;28;20030;-35
2023/11/27 06:30:02;;;;;;;4.32;3.15;;;;;;;3.42;100.00;100144.00;5114941;28;20076;-36
2023/11/27 06:32:29;;;;;;;5.88;4.57;;;;;;;3.44;100.00;100141.94;5115179;28;20031;-36
2023/11/27 06:34:54;;;;;;;8.00;4.97;;;;;;;3.41;100.00;100131.63;5114278;28;20355;-35
2023/11/27 06:37:20;;;;;;;3.97;3.30;;;;;;;3.47;100.00;100125.50;5113934;28;20023;-35
2023/11/27 06:39:48;;;;;;;5.70;3.23;;;;;;;3.38;100.00;100111.50;5113938;28;20020;-35
2023/11/27 06:42:14;;;;;;;4.00;3.13;;;;;;;3.33;100.00;100097.91;5114708;28;20019;-36
2023/11/27 06:44:40;;;;;;;4.18;3.13;;;;;;;3.42;100.00;100118.09;5114445;28;20020;-35
2023/11/27 06:47:06;;;;;;;4.93;2.80;;;;;;;3.32;100.00;100094.44;5114683;28;20404;-36
2023/11/27 06:49:31;;;;;;;3.83;2.25;;;;;;;3.45;100.00;100106.97;5114106;28;20358;-36
2023/11/27 06:51:57;;;;;;;4.67;2.60;;;;;;;3.44;100.00;100104.50;5114164;28;20023;-36
2023/11/27 06:54:22;;;;;;;2.73;2.30;;;;;;;3.48;100.00;100090.53;5114681;28;20114;-36
2023/11/27 06:56:48;;;;;;;4.60;2.63;;;;;;;3.50;100.00;100076.97;5114755;28;20047;-36
2023/11/27 06:59:13;;;;;;;3.92;2.55;;;;;;;3.51;100.00;100079.44;5114062;28;20036;-36
2023/11/27 07:01:41;;;;;;;3.95;2.70;;;;;;;3.53;100.00;100076.56;5114056;28;20019;-36
2023/11/27 07:04:06;;;;;;;3.67;2.75;;;;;;;3.50;100.00;100055.59;5114199;28;20028;-35
2023/11/27 07:06:34;;;;;;;2.72;2.47;;;;;;;3.51;100.00;100058.03;5114048;28;20084;-35
2023/11/27 07:09:04;;;;;;;5.18;2.28;;;;;;;3.44;100.00;100043.03;5114404;28;20028;-35
2023/11/27 07:11:30;;;;;;;3.75;2.20;;;;;;;3.54;100.00;100046.94;5114479;28;20023;-35
2023/11/27 07:13:55;;;;;;;3.17;2.70;;;;;;;3.50;100.00;100044.91;5113618;28;20092;-35
2023/11/27 07:16:21;;;;;;;2.73;2.20;;;;;;;3.52;100.00;100042.84;5114109;28;20023;-36
2023/11/27 07:18:46;;;;;;;4.43;3.20;;;;;;;3.52;100.00;100037.50;5116659;28;20111;-36
2023/11/27 07:21:12;;;;;;;3.27;2.50;;;;;;;3.54;100.00;100036.25;5118047;28;20047;-36
2023/11/27 07:23:40;;;;;;;3.72;3.00;;;;;;;3.55;100.00;100040.56;5118206;28;20015;-35
2023/11/27 07:26:07;;;;;;;2.83;2.53;;;;;;;3.53;100.00;100031.13;5117790;28;20115;-35
2023/11/27 07:28:32;;;;;;;2.67;2.42;;;;;;;3.47;100.00;100015.91;5118216;28;20104;-36
2023/11/27 07:30:58;;;;;;;3.53;2.77;;;;;;;3.51;100.00;100023.28;5117571;27;20024;-36
2023/11/27 07:33:24;;;;;;;3.47;2.42;;;;;;;3.56;100.00;100018.19;5117428;28;20483;-36
2023/11/27 07:35:50;;;;;;;3.50;2.50;;;;;;;3.60;100.00;100023.91;5117680;28;20047;-36
2023/11/27 07:38:15;;;;;;;3.15;2.78;;;;;;;3.47;100.00;99992.69;5117666;28;20100;-35
2023/11/27 07:40:42;;;;;;;3.25;2.50;;;;;;;3.54;100.00;100006.03;5117311;27;20051;-36
2023/11/27 07:43:10;;;;;;;3.25;2.95;;;;;;;3.56;100.00;99999.47;5117195;28;20035;-35
2023/11/27 07:45:36;;;;;;;3.83;2.78;;;;;;;3.60;100.00;99997.19;5117490;28;20024;-35
2023/11/27 07:48:01;;;;;;;4.28;3.03;;;;;;;3.57;100.00;99986.94;5117396;28;20023;-36
2023/11/27 07:50:29;;;;;;;3.03;2.77;;;;;;;3.48;100.00;99969.44;5117635;28;20113;-35
2023/11/27 07:52:55;;;;;;;3.97;3.08;;;;;;;3.59;100.00;99990.19;5117295;28;20023;-35
2023/11/27 07:55:20;;;;;;;4.20;2.90;;;;;;;3.52;100.00;99974.16;5117847;28;20316;-35
2023/11/27 07:57:45;;;;;;;3.83;3.17;;;;;;;3.58;100.00;99973.34;5118115;28;20351;-35
2023/11/27 08:00:14;;;;;;;3.33;3.03;;;;;;;3.63;100.00;99975.41;5117347;28;20020;-36
2023/11/27 08:02:40;;;;;;;4.13;2.95;;;;;;;3.62;100.00;99971.09;5117634;28;20448;-36
2023/11/27 08:05:08;;;;;;;3.53;3.05;;;;;;;3.55;100.00;99948.88;5116562;28;20023;-36
2023/11/27 08:07:34;;;;;;;3.60;3.30;;;;;;;3.67;100.00;99959.78;5115875;28;20031;-36
2023/11/27 08:10:01;;;;;;;3.75;3.35;;;;;;;3.70;100.00;99951.31;5116767;28;20023;-35
2023/11/27 08:12:26;;;;;;;4.25;3.40;;;;;;;3.63;100.00;99943.31;5116954;28;20034;-36
2023/11/27 08:14:52;;;;;;;4.05;3.25;;;;;;;3.73;100.00;99948.25;5117006;28;20020;-36
2023/11/27 08:17:17;;;;;;;2.92;2.55;;;;;;;3.75;100.00;99935.47;5116848;28;20515;-36
2023/11/27 08:19:44;;;;;;;4.33;3.37;;;;;;;3.74;100.00;99933.81;5117186;28;20024;-36
2023/11/27 08:22:11;;;;;;;4.03;3.22;;;;;;;3.77;100.00;99934.25;5116875;28;20027;-36
2023/11/27 08:24:37;;;;;;;3.72;3.20;;;;;;;3.71;100.00;99927.06;5117071;28;20020;-35
2023/11/27 08:27:02;;;;;;;4.00;3.63;;;;;;;3.77;100.00;99928.91;5117044;28;20358;-35
2023/11/27 08:29:30;;;;;;;3.73;3.30;;;;;;;3.73;100.00;99911.63;5116244;28;20336;-35
2023/11/27 08:31:58;;;;;;;4.00;3.05;;;;;;;3.80;100.00;99923.09;5116679;28;20011;-35
2023/11/27 08:34:25;;;;;;;4.10;3.25;;;;;;;3.84;100.00;99919.00;5116582;28;20055;-35
2023/11/27 08:36:50;;;;;;;3.47;3.17;;;;;;;3.67;100.00;99884.91;5116786;28;20110;-35
2023/11/27 08:39:17;;;;;;;4.33;3.17;;;;;;;3.81;100.00;99897.22;5117111;28;20462;-36
2023/11/27 08:41:42;;;;;;;4.35;3.55;;;;;;;3.81;100.00;99897.22;5116535;28;20023;-36
2023/11/27 08:44:08;;;;;;;3.30;3.00;;;;;;;3.83;100.00;99893.28;5116395;28;20385;-36
2023/11/27 08:46:35;;;;;;;3.92;3.35;;;;;;;3.88;100.00;99892.66;5117224;28;20027;-35
2023/11/27 08:49:02;;;;;;;4.40;3.30;;;;;;;3.89;100.00;99902.31;5116332;28;20364;-35
2023/11/27 08:51:27;;;;;;;;;;;;;;;3.98;100.00;99897.56;5116957;28;20470;-35
2023/11/27 08:53:53;;;;;;;3.08;2.75;;;;;;;3.92;100.00;99891.22;5116739;28;19998;-35
2023/11/27 08:56:19;;;;;;;2.83;2.53;;;;;;;3.98;100.00;99894.88;5116002;28;20452;-35
2023/11/27 08:58:48;;;;;;;3.13;2.85;;;;;;;3.92;100.00;99883.19;5116194;28;20024;-35
2023/11/27 09:01:16;;;;;;;3.28;2.97;;;;;;;3.96;100.00;99880.91;5116086;28;20034;-36
2023/11/27 09:03:42;;;;;;;3.63;2.90;;;;;;;4.01;100.00;99873.91;5115973;28;20027;-35
2023/11/27 09:06:09;;;;;;;3.60;3.00;;;;;;;3.91;100.00;99859.34;5115711;28;20072;-36
2023/11/27 09:08:34;;;;;;;3.72;2.88;;;;;;;3.99;100.00;99872.44;5115864;28;20023;-36
2023/11/27 09:11:00;;;;;;;5.57;3.45;;;;;;;4.01;100.00;99862.38;5115893;28;20444;-36
2023/11/27 09:13:25;;;;;;;3.40;2.93;;;;;;;4.04;100.00;99857.41;5115625;28;20031;-35
2023/11/27 09:15:51;;;;;;;3.90;2.90;;;;;;;4.05;100.00;99856.38;5116130;28;20027;-36
2023/11/27 09:18:16;;;;;;;3.20;2.83;;;;;;;4.06;100.00;99847.31;5115730;28;20096;-36
2023/11/27 09:20:41;;;;;;;3.30;2.80;;;;;;;4.09;100.00;99848.75;5116093;28;20072;-36
2023/11/27 09:23:06;;;;;;;4.20;2.90;;;;;;;4.10;100.00;99848.53;5115629;28;20019;-36
2023/11/27 09:25:33;;;;;;;3.07;2.80;;;;;;;4.12;100.00;99845.66;5115669;28;20028;-36
2023/11/27 09:27:59;;;;;;;3.10;2.70;;;;;;;4.11;100.00;99838.66;5115510;28;20027;-36
2023/11/27 09:30:24;;;;;;;2.90;2.70;;;;;;;4.13;100.00;99828.56;5115517;28;20471;-36
2023/11/27 09:32:51;;;;;;;2.70;2.50;;;;;;;4.15;100.00;99829.19;5115161;28;20028;-36
2023/11/27 09:35:16;;;;;;;3.10;2.60;;;;;;;4.16;100.00;99825.47;5115678;28;20066;-36
2023/11/27 09:37:42;;;;;;;2.70;2.50;;;;;;;4.06;100.00;99793.81;5115569;28;20435;-36
2023/11/27 09:40:10;;;;;;;3.03;2.63;;;;;;;4.19;100.00;99816.16;5114787;28;20020;-36
2023/11/27 09:42:36;;;;;;;3.42;2.70;;;;;;;4.19;100.00;99813.50;5116087;28;20027;-36
2023/11/27 09:45:07;;;;;;;2.70;2.50;;;;;;;4.18;100.00;99815.34;5114968;28;20026;-36
2023/11/27 09:47:33;;;;;;;3.42;2.55;;;;;;;4.22;100.00;99810.41;5115468;28;20341;-35
2023/11/27 09:50:00;;;;;;;3.42;2.72;;;;;;;4.23;100.00;99802.16;5115189;27;20034;-36
2023/11/27 09:52:54;;;;;;;3.28;2.63;;;;;;;4.23;100.00;99804.81;5115132;28;20022;-36
2023/11/27 09:55:20;;;;;;;2.67;2.40;;;;;;;4.23;100.00;99794.13;5109650;27;20032;-36
2023/11/27 09:57:48;;;;;;;3.70;2.50;;;;;;;4.26;100.00;99788.34;5115120;28;20100;-36
2023/11/27 10:00:17;;;;;;;2.55;2.35;;;;;;;4.26;100.00;99783.00;5115763;28;20185;-36
2023/11/27 10:02:43;;;;;;;4.35;2.35;;;;;;;4.21;100.00;99766.78;5114891;27;20031;-36
2023/11/27 10:05:11;;;;;;;4.15;2.67;;;;;;;4.30;100.00;99772.69;5114871;28;20069;-36
2023/11/27 10:07:37;;;;;;;2.90;2.40;;;;;;;4.33;100.00;99765.03;5115401;28;20019;-36
2023/11/27 10:10:07;;;;;;;5.87;3.23;;;;;;;4.34;100.00;99757.81;5115531;28;20027;-36
2023/11/27 10:12:35;;;;;;;2.40;2.20;;;;;;;4.37;100.00;99758.22;5115006;28;20645;-35
2023/11/27 10:15:02;;;;;;;3.88;2.80;;;;;;;4.33;100.00;99742.78;5114935;28;20441;-35
2023/11/27 10:17:29;;;;;;;2.63;2.17;;;;;;;4.37;100.00;99742.16;5114536;28;20451;-36
2023/11/27 10:19:58;;;;;;;2.47;2.28;;;;;;;4.38;100.00;99748.31;5115131;28;20020;-36
2023/11/27 10:22:29;;;;;;;2.88;2.10;;;;;;;4.41;100.00;99736.38;5114840;28;20035;-36
2023/11/27 10:24:56;;;;;;;2.38;1.98;;;;;;;4.41;100.00;99731.03;5114293;28;20050;-36
2023/11/27 10:27:23;;;;;;;2.30;2.10;;;;;;;4.27;100.00;99700.84;5114496;28;20020;-36
2023/11/27 10:29:49;;;;;;;2.40;2.20;;;;;;;4.46;100.00;99728.50;5114385;28;20344;-36
2023/11/27 10:32:14;;;;;;;3.70;1.93;;;;;;;4.49;100.00;99725.38;5114430;28;20019;-36
2023/11/27 10:34:40;;;;;;;2.23;1.53;;;;;;;4.42;100.00;99712.06;5114604;28;20020;-36
2023/11/27 10:37:07;;;;;;;2.33;1.85;;;;;;;4.49;100.00;99714.66;5114542;28;20061;-36
2023/11/27 10:39:33;;;;;;;2.33;1.80;;;;;;;4.48;100.00;99711.16;5114219;28;20023;-35
2023/11/27 10:42:02;;;;;;;2.92;1.85;;;;;;;4.41;100.00;99694.34;5114778;27;20031;-35
2023/11/27 10:44:40;;;;;;;2.95;2.00;;;;;;;4.53;100.00;99705.16;5114199;28;20020;-36
2023/11/27 10:47:07;;;;;;;1.80;1.50;;;;;;;4.54;100.00;99706.78;5114991;28;20111;-35
2023/11/27 10:49:34;;;;;;;;;;;;;;;4.58;100.00;99687.41;5114814;28;20015;-36
2023/11/27 10:52:00;;;;;;;1.40;1.30;;;;;;;4.48;100.00;99662.16;5114843;28;19908;-35
2023/11/27 10:54:30;;;;;;;1.40;1.23;;;;;;;4.60;100.00;99679.16;5114036;28;20106;-36
2023/11/27 10:57:02;;;;;;;1.67;1.30;;;;;;;4.56;100.00;99680.63;5114319;28;20043;-35
2023/11/27 10:59:30;;;;;;;1.92;1.20;;;;;;;4.60;100.00;99676.50;5114315;28;20024;-35
2023/11/27 11:02:00;;;;;;;1.25;1.15;;;;;;;4.61;100.00;99675.44;5114304;28;20348;-35
2023/11/27 11:04:30;;;;;;;2.40;1.20;;;;;;;4.63;100.00;99665.31;5114335;28;20452;-35
2023/11/27 11:07:00;;;;;;;1.35;1.10;;;;;;;4.55;100.00;99649.56;5114469;28;20062;-35
2023/11/27 11:09:27;;;;;;;1.40;1.20;;;;;;;4.65;100.00;99663.25;5113907;28;20053;-35
2023/11/27 11:11:55;;;;;;;1.08;0.98;;;;;;;4.66;100.00;99654.19;5114480;28;20020;-35
2023/11/27 11:14:24;;;;;;;1.20;0.98;;;;;;;4.61;100.00;99640.63;5113578;28;20042;-35
2023/11/27 11:17:11;;;;;;;2.42;1.20;;;;;;;4.67;100.00;99650.44;5114098;28;20031;-35
2023/11/27 11:19:58;;;;;;;2.75;1.15;;;;;;;4.67;100.00;99642.41;5114173;28;20121;-35
2023/11/27 11:22:41;;;;;;;1.23;0.82;;;;;;;4.71;100.00;99629.41;5114391;28;20023;-35
2023/11/27 11:25:15;;;;;;;1.55;1.02;;;;;;;4.73;100.00;99638.03;5114112;28;20034;-35